sensor_id;sensor_type;location;lat;lon;timestamp;P1;durP1;ratioP1;P2;durP2;ratioP2
65096;SDS011;51686;46.758;4.356;2023-07-29T00:00:21;3.15;;;1.60;;
65096;SDS011;51686;46.758;4.356;2023-07-29T00:03:08;3.05;;;1.55;;
65096;SDS011;51686;46.758;4.356;2023-07-29T00:05:55;4.68;;;1.80;;
65096;SDS011;51686;46.758;4.356;2023-07-29T00:08:42;4.80;;;1.67;;
65096;SDS011;51686;46.758;4.356;2023-07-29T00:11:29;3.53;;;1.55;;
65096;SDS011;51686;46.758;4.356;2023-07-29T00:14:16;4.28;;;1.83;;
65096;SDS011;51686;46.758;4.356;2023-07-29T00:17:03;3.58;;;1.55;;
65096;SDS011;51686;46.758;4.356;2023-07-29T00:19:50;4.03;;;1.60;;
65096;SDS011;51686;46.758;4.356;2023-07-29T00:22:37;4.50;;;1.80;;
65096;SDS011;51686;46.758;4.356;2023-07-29T00:25:24;5.22;;;1.73;;
65096;SDS011;51686;46.758;4.356;2023-07-29T00:28:11;3.65;;;1.52;;
65096;SDS011;51686;46.758;4.356;2023-07-29T00:30:58;4.43;;;1.80;;
65096;SDS011;51686;46.758;4.356;2023-07-29T00:33:45;3.78;;;1.55;;
65096;SDS011;51686;46.758;4.356;2023-07-29T00:36:32;3.53;;;1.58;;
65096;SDS011;51686;46.758;4.356;2023-07-29T00:39:20;4.55;;;1.90;;
65096;SDS011;51686;46.758;4.356;2023-07-29T00:42:06;3.83;;;1.40;;
65096;SDS011;51686;46.758;4.356;2023-07-29T00:44:53;5.65;;;1.90;;
65096;SDS011;51686;46.758;4.356;2023-07-29T00:47:40;4.32;;;1.70;;
65096;SDS011;51686;46.758;4.356;2023-07-29T00:50:28;3.97;;;1.55;;
65096;SDS011;51686;46.758;4.356;2023-07-29T00:53:15;3.63;;;1.60;;
65096;SDS011;51686;46.758;4.356;2023-07-29T00:56:02;4.90;;;1.63;;
65096;SDS011;51686;46.758;4.356;2023-07-29T00:58:49;4.63;;;1.73;;
65096;SDS011;51686;46.758;4.356;2023-07-29T01:01:38;4.68;;;1.63;;
65096;SDS011;51686;46.758;4.356;2023-07-29T01:04:25;4.13;;;1.60;;
65096;SDS011;51686;46.758;4.356;2023-07-29T01:07:14;4.35;;;1.70;;
65096;SDS011;51686;46.758;4.356;2023-07-29T01:15:54;4.90;;;1.80;;
65096;SDS011;51686;46.758;4.356;2023-07-29T01:18:43;4.03;;;1.55;;
65096;SDS011;51686;46.758;4.356;2023-07-29T01:21:35;4.13;;;1.70;;
65096;SDS011;51686;46.758;4.356;2023-07-29T01:24:22;3.40;;;1.60;;
65096;SDS011;51686;46.758;4.356;2023-07-29T01:27:08;2.90;;;1.52;;
65096;SDS011;51686;46.758;4.356;2023-07-29T01:29:56;4.03;;;1.60;;
65096;SDS011;51686;46.758;4.356;2023-07-29T01:32:48;3.40;;;1.63;;
65096;SDS011;51686;46.758;4.356;2023-07-29T01:35:46;4.07;;;1.57;;
65096;SDS011;51686;46.758;4.356;2023-07-29T01:38:36;2.78;;;1.40;;
65096;SDS011;51686;46.758;4.356;2023-07-29T01:41:25;3.25;;;1.50;;
65096;SDS011;51686;46.758;4.356;2023-07-29T01:44:12;2.78;;;1.40;;
65096;SDS011;51686;46.758;4.356;2023-07-29T01:46:59;2.55;;;1.33;;
65096;SDS011;51686;46.758;4.356;2023-07-29T01:49:46;3.30;;;1.42;;
65096;SDS011;51686;46.758;4.356;2023-07-29T01:52:33;4.03;;;1.70;;
65096;SDS011;51686;46.758;4.356;2023-07-29T01:55:20;2.67;;;1.48;;
65096;SDS011;51686;46.758;4.356;2023-07-29T01:58:07;2.88;;;1.40;;
65096;SDS011;51686;46.758;4.356;2023-07-29T02:00:54;3.08;;;1.50;;
65096;SDS011;51686;46.758;4.356;2023-07-29T02:03:41;3.90;;;1.63;;
65096;SDS011;51686;46.758;4.356;2023-07-29T02:06:27;3.67;;;1.65;;
65096;SDS011;51686;46.758;4.356;2023-07-29T02:09:14;3.63;;;1.58;;
65096;SDS011;51686;46.758;4.356;2023-07-29T02:12:01;4.57;;;1.77;;
65096;SDS011;51686;46.758;4.356;2023-07-29T02:14:49;4.00;;;1.70;;
65096;SDS011;51686;46.758;4.356;2023-07-29T02:17:36;4.38;;;1.60;;
65096;SDS011;51686;46.758;4.356;2023-07-29T02:20:23;4.20;;;1.70;;
65096;SDS011;51686;46.758;4.356;2023-07-29T02:23:10;4.50;;;1.73;;
65096;SDS011;51686;46.758;4.356;2023-07-29T02:25:57;4.50;;;1.60;;
65096;SDS011;51686;46.758;4.356;2023-07-29T02:28:44;4.40;;;1.95;;
65096;SDS011;51686;46.758;4.356;2023-07-29T02:31:31;4.43;;;1.90;;
65096;SDS011;51686;46.758;4.356;2023-07-29T02:34:18;4.18;;;1.80;;
65096;SDS011;51686;46.758;4.356;2023-07-29T02:37:05;3.70;;;1.70;;
65096;SDS011;51686;46.758;4.356;2023-07-29T02:39:53;3.72;;;1.70;;
65096;SDS011;51686;46.758;4.356;2023-07-29T02:42:40;3.67;;;1.75;;
65096;SDS011;51686;46.758;4.356;2023-07-29T02:45:27;6.18;;;1.80;;
65096;SDS011;51686;46.758;4.356;2023-07-29T02:48:14;4.22;;;1.80;;
65096;SDS011;51686;46.758;4.356;2023-07-29T02:51:01;4.93;;;1.95;;
65096;SDS011;51686;46.758;4.356;2023-07-29T02:53:48;4.18;;;1.80;;
65096;SDS011;51686;46.758;4.356;2023-07-29T02:56:35;4.82;;;1.85;;
65096;SDS011;51686;46.758;4.356;2023-07-29T02:59:22;3.97;;;1.80;;
65096;SDS011;51686;46.758;4.356;2023-07-29T03:02:09;4.07;;;1.80;;
65096;SDS011;51686;46.758;4.356;2023-07-29T03:04:56;5.40;;;2.15;;
65096;SDS011;51686;46.758;4.356;2023-07-29T03:07:43;3.90;;;1.67;;
65096;SDS011;51686;46.758;4.356;2023-07-29T03:10:30;4.10;;;1.83;;
65096;SDS011;51686;46.758;4.356;2023-07-29T03:13:17;7.60;;;2.03;;
65096;SDS011;51686;46.758;4.356;2023-07-29T03:16:04;4.15;;;1.80;;
65096;SDS011;51686;46.758;4.356;2023-07-29T03:21:39;4.32;;;1.98;;
65096;SDS011;51686;46.758;4.356;2023-07-29T03:24:26;5.85;;;2.15;;
65096;SDS011;51686;46.758;4.356;2023-07-29T03:27:13;5.75;;;2.10;;
65096;SDS011;51686;46.758;4.356;2023-07-29T03:30:03;5.20;;;2.10;;
65096;SDS011;51686;46.758;4.356;2023-07-29T03:32:50;5.38;;;2.08;;
65096;SDS011;51686;46.758;4.356;2023-07-29T03:35:37;4.80;;;1.85;;
65096;SDS011;51686;46.758;4.356;2023-07-29T03:38:24;5.97;;;2.13;;
65096;SDS011;51686;46.758;4.356;2023-07-29T03:41:11;4.78;;;1.98;;
65096;SDS011;51686;46.758;4.356;2023-07-29T03:43:57;5.68;;;2.20;;
65096;SDS011;51686;46.758;4.356;2023-07-29T03:46:45;4.28;;;2.00;;
65096;SDS011;51686;46.758;4.356;2023-07-29T03:49:32;5.63;;;2.03;;
65096;SDS011;51686;46.758;4.356;2023-07-29T03:52:18;5.72;;;2.28;;
65096;SDS011;51686;46.758;4.356;2023-07-29T03:55:05;5.90;;;2.40;;
65096;SDS011;51686;46.758;4.356;2023-07-29T03:57:53;6.55;;;2.25;;
65096;SDS011;51686;46.758;4.356;2023-07-29T04:00:39;5.30;;;2.10;;
65096;SDS011;51686;46.758;4.356;2023-07-29T04:03:26;5.65;;;2.22;;
65096;SDS011;51686;46.758;4.356;2023-07-29T04:06:13;5.18;;;2.20;;
65096;SDS011;51686;46.758;4.356;2023-07-29T04:09:00;5.53;;;2.08;;
65096;SDS011;51686;46.758;4.356;2023-07-29T04:11:47;6.55;;;2.15;;
65096;SDS011;51686;46.758;4.356;2023-07-29T04:14:36;5.88;;;2.30;;
65096;SDS011;51686;46.758;4.356;2023-07-29T04:17:23;5.63;;;2.10;;
65096;SDS011;51686;46.758;4.356;2023-07-29T04:20:10;5.65;;;2.25;;
65096;SDS011;51686;46.758;4.356;2023-07-29T04:22:57;4.93;;;2.20;;
65096;SDS011;51686;46.758;4.356;2023-07-29T04:25:44;5.47;;;2.38;;
65096;SDS011;51686;46.758;4.356;2023-07-29T04:28:31;6.22;;;2.47;;
65096;SDS011;51686;46.758;4.356;2023-07-29T04:31:18;5.57;;;2.35;;
65096;SDS011;51686;46.758;4.356;2023-07-29T04:34:05;5.30;;;2.28;;
65096;SDS011;51686;46.758;4.356;2023-07-29T04:36:52;5.65;;;2.30;;
65096;SDS011;51686;46.758;4.356;2023-07-29T04:39:39;5.88;;;2.30;;
65096;SDS011;51686;46.758;4.356;2023-07-29T04:42:27;6.05;;;2.10;;
65096;SDS011;51686;46.758;4.356;2023-07-29T04:45:14;6.60;;;2.83;;
65096;SDS011;51686;46.758;4.356;2023-07-29T04:48:02;4.37;;;2.17;;
65096;SDS011;51686;46.758;4.356;2023-07-29T04:50:49;7.18;;;2.42;;
65096;SDS011;51686;46.758;4.356;2023-07-29T04:53:36;7.90;;;2.65;;
65096;SDS011;51686;46.758;4.356;2023-07-29T04:56:25;5.00;;;2.30;;
65096;SDS011;51686;46.758;4.356;2023-07-29T04:59:11;6.05;;;2.45;;
65096;SDS011;51686;46.758;4.356;2023-07-29T05:01:59;5.57;;;2.38;;
65096;SDS011;51686;46.758;4.356;2023-07-29T05:04:46;6.53;;;2.50;;
65096;SDS011;51686;46.758;4.356;2023-07-29T05:07:33;6.95;;;2.90;;
65096;SDS011;51686;46.758;4.356;2023-07-29T05:10:20;7.20;;;2.47;;
65096;SDS011;51686;46.758;4.356;2023-07-29T05:13:07;7.15;;;2.50;;
65096;SDS011;51686;46.758;4.356;2023-07-29T05:15:54;6.18;;;2.58;;
65096;SDS011;51686;46.758;4.356;2023-07-29T05:18:41;5.80;;;2.40;;
65096;SDS011;51686;46.758;4.356;2023-07-29T05:21:28;5.70;;;2.45;;
65096;SDS011;51686;46.758;4.356;2023-07-29T05:24:15;6.57;;;2.83;;
65096;SDS011;51686;46.758;4.356;2023-07-29T05:27:01;7.30;;;2.85;;
65096;SDS011;51686;46.758;4.356;2023-07-29T05:29:48;6.28;;;2.83;;
65096;SDS011;51686;46.758;4.356;2023-07-29T05:32:35;6.57;;;2.80;;
65096;SDS011;51686;46.758;4.356;2023-07-29T05:35:22;7.20;;;3.00;;
65096;SDS011;51686;46.758;4.356;2023-07-29T05:38:09;6.60;;;2.88;;
65096;SDS011;51686;46.758;4.356;2023-07-29T05:40:56;8.63;;;2.75;;
65096;SDS011;51686;46.758;4.356;2023-07-29T05:43:43;6.03;;;2.67;;
65096;SDS011;51686;46.758;4.356;2023-07-29T05:46:31;7.60;;;3.30;;
65096;SDS011;51686;46.758;4.356;2023-07-29T05:49:18;6.88;;;2.85;;
65096;SDS011;51686;46.758;4.356;2023-07-29T05:52:05;6.90;;;2.90;;
65096;SDS011;51686;46.758;4.356;2023-07-29T05:54:52;6.93;;;3.30;;
65096;SDS011;51686;46.758;4.356;2023-07-29T05:57:39;7.80;;;3.30;;
65096;SDS011;51686;46.758;4.356;2023-07-29T06:00:29;6.57;;;3.22;;
65096;SDS011;51686;46.758;4.356;2023-07-29T06:03:16;6.90;;;3.13;;
65096;SDS011;51686;46.758;4.356;2023-07-29T06:06:03;7.63;;;3.42;;
65096;SDS011;51686;46.758;4.356;2023-07-29T06:08:50;7.75;;;3.72;;
65096;SDS011;51686;46.758;4.356;2023-07-29T06:11:37;8.48;;;4.40;;
65096;SDS011;51686;46.758;4.356;2023-07-29T06:14:24;9.02;;;4.68;;
65096;SDS011;51686;46.758;4.356;2023-07-29T06:17:11;8.32;;;4.22;;
65096;SDS011;51686;46.758;4.356;2023-07-29T06:19:58;9.65;;;4.90;;
65096;SDS011;51686;46.758;4.356;2023-07-29T06:22:45;9.20;;;4.85;;
65096;SDS011;51686;46.758;4.356;2023-07-29T06:25:32;9.15;;;5.32;;
65096;SDS011;51686;46.758;4.356;2023-07-29T06:28:19;9.90;;;5.97;;
65096;SDS011;51686;46.758;4.356;2023-07-29T06:31:06;10.68;;;6.43;;
65096;SDS011;51686;46.758;4.356;2023-07-29T06:33:53;10.07;;;6.47;;
65096;SDS011;51686;46.758;4.356;2023-07-29T06:36:41;10.23;;;6.90;;
65096;SDS011;51686;46.758;4.356;2023-07-29T06:39:28;10.73;;;7.28;;
65096;SDS011;51686;46.758;4.356;2023-07-29T06:42:15;11.10;;;7.53;;
65096;SDS011;51686;46.758;4.356;2023-07-29T06:45:02;11.90;;;8.23;;
65096;SDS011;51686;46.758;4.356;2023-07-29T06:47:49;10.98;;;7.93;;
65096;SDS011;51686;46.758;4.356;2023-07-29T06:50:36;11.32;;;7.95;;
65096;SDS011;51686;46.758;4.356;2023-07-29T06:53:23;11.27;;;7.80;;
65096;SDS011;51686;46.758;4.356;2023-07-29T06:56:09;11.82;;;7.82;;
65096;SDS011;51686;46.758;4.356;2023-07-29T06:58:56;11.32;;;8.05;;
65096;SDS011;51686;46.758;4.356;2023-07-29T07:01:43;12.07;;;8.23;;
65096;SDS011;51686;46.758;4.356;2023-07-29T07:04:30;12.25;;;8.60;;
65096;SDS011;51686;46.758;4.356;2023-07-29T07:07:17;12.35;;;8.13;;
65096;SDS011;51686;46.758;4.356;2023-07-29T07:10:04;11.63;;;8.27;;
65096;SDS011;51686;46.758;4.356;2023-07-29T07:12:51;11.65;;;8.35;;
65096;SDS011;51686;46.758;4.356;2023-07-29T07:15:38;11.90;;;8.40;;
65096;SDS011;51686;46.758;4.356;2023-07-29T07:18:25;11.70;;;8.48;;
65096;SDS011;51686;46.758;4.356;2023-07-29T07:21:12;11.27;;;8.05;;
65096;SDS011;51686;46.758;4.356;2023-07-29T07:23:59;11.25;;;8.07;;
65096;SDS011;51686;46.758;4.356;2023-07-29T07:26:46;11.82;;;7.80;;
65096;SDS011;51686;46.758;4.356;2023-07-29T07:29:33;10.60;;;7.25;;
65096;SDS011;51686;46.758;4.356;2023-07-29T07:32:20;10.63;;;7.43;;
65096;SDS011;51686;46.758;4.356;2023-07-29T07:35:07;10.65;;;7.03;;
65096;SDS011;51686;46.758;4.356;2023-07-29T07:37:54;11.05;;;7.22;;
65096;SDS011;51686;46.758;4.356;2023-07-29T07:40:41;9.40;;;6.63;;
65096;SDS011;51686;46.758;4.356;2023-07-29T07:43:28;9.80;;;6.15;;
65096;SDS011;51686;46.758;4.356;2023-07-29T07:46:15;9.88;;;6.63;;
65096;SDS011;51686;46.758;4.356;2023-07-29T07:49:02;10.05;;;5.97;;
65096;SDS011;51686;46.758;4.356;2023-07-29T07:51:49;9.57;;;5.57;;
65096;SDS011;51686;46.758;4.356;2023-07-29T07:54:36;9.00;;;5.20;;
65096;SDS011;51686;46.758;4.356;2023-07-29T07:57:23;9.10;;;5.40;;
65096;SDS011;51686;46.758;4.356;2023-07-29T08:00:10;9.48;;;5.43;;
65096;SDS011;51686;46.758;4.356;2023-07-29T08:02:57;9.48;;;4.88;;
65096;SDS011;51686;46.758;4.356;2023-07-29T08:05:44;8.15;;;4.60;;
65096;SDS011;51686;46.758;4.356;2023-07-29T08:08:31;7.53;;;4.18;;
65096;SDS011;51686;46.758;4.356;2023-07-29T08:11:18;7.95;;;4.20;;
65096;SDS011;51686;46.758;4.356;2023-07-29T08:14:05;7.93;;;4.07;;
65096;SDS011;51686;46.758;4.356;2023-07-29T08:16:51;9.57;;;4.75;;
65096;SDS011;51686;46.758;4.356;2023-07-29T08:19:38;9.88;;;4.00;;
65096;SDS011;51686;46.758;4.356;2023-07-29T08:22:25;9.48;;;4.28;;
65096;SDS011;51686;46.758;4.356;2023-07-29T08:25:12;7.60;;;3.35;;
65096;SDS011;51686;46.758;4.356;2023-07-29T08:27:59;6.90;;;2.80;;
65096;SDS011;51686;46.758;4.356;2023-07-29T08:30:46;6.15;;;2.65;;
65096;SDS011;51686;46.758;4.356;2023-07-29T08:33:33;6.88;;;2.90;;
65096;SDS011;51686;46.758;4.356;2023-07-29T08:36:20;6.47;;;2.40;;
65096;SDS011;51686;46.758;4.356;2023-07-29T08:39:07;5.30;;;2.33;;
65096;SDS011;51686;46.758;4.356;2023-07-29T08:41:57;7.03;;;2.60;;
65096;SDS011;51686;46.758;4.356;2023-07-29T08:44:49;6.20;;;2.45;;
65096;SDS011;51686;46.758;4.356;2023-07-29T08:47:36;6.88;;;2.30;;
65096;SDS011;51686;46.758;4.356;2023-07-29T08:50:22;4.93;;;2.30;;
65096;SDS011;51686;46.758;4.356;2023-07-29T08:53:11;4.85;;;2.10;;
65096;SDS011;51686;46.758;4.356;2023-07-29T08:55:58;5.15;;;2.10;;
65096;SDS011;51686;46.758;4.356;2023-07-29T08:58:45;5.25;;;2.28;;
65096;SDS011;51686;46.758;4.356;2023-07-29T09:01:33;6.15;;;2.30;;
65096;SDS011;51686;46.758;4.356;2023-07-29T09:04:20;4.85;;;1.90;;
65096;SDS011;51686;46.758;4.356;2023-07-29T09:07:07;4.28;;;1.80;;
65096;SDS011;51686;46.758;4.356;2023-07-29T09:09:54;5.03;;;1.90;;
65096;SDS011;51686;46.758;4.356;2023-07-29T09:12:41;5.43;;;2.00;;
65096;SDS011;51686;46.758;4.356;2023-07-29T09:15:32;4.53;;;1.83;;
65096;SDS011;51686;46.758;4.356;2023-07-29T09:18:19;5.15;;;2.10;;
65096;SDS011;51686;46.758;4.356;2023-07-29T09:21:06;5.82;;;2.20;;
65096;SDS011;51686;46.758;4.356;2023-07-29T09:23:54;6.38;;;2.28;;
65096;SDS011;51686;46.758;4.356;2023-07-29T09:26:48;5.85;;;2.05;;
65096;SDS011;51686;46.758;4.356;2023-07-29T09:29:35;5.50;;;2.05;;
65096;SDS011;51686;46.758;4.356;2023-07-29T09:32:23;4.18;;;1.90;;
65096;SDS011;51686;46.758;4.356;2023-07-29T09:35:13;5.90;;;2.00;;
65096;SDS011;51686;46.758;4.356;2023-07-29T09:38:03;6.00;;;2.40;;
65096;SDS011;51686;46.758;4.356;2023-07-29T09:40:52;6.70;;;2.00;;
65096;SDS011;51686;46.758;4.356;2023-07-29T09:43:41;4.03;;;1.80;;
65096;SDS011;51686;46.758;4.356;2023-07-29T09:46:32;4.97;;;1.88;;
65096;SDS011;51686;46.758;4.356;2023-07-29T09:49:22;5.38;;;2.03;;
65096;SDS011;51686;46.758;4.356;2023-07-29T09:52:09;6.53;;;2.30;;
65096;SDS011;51686;46.758;4.356;2023-07-29T09:54:55;4.30;;;1.98;;
65096;SDS011;51686;46.758;4.356;2023-07-29T09:57:42;6.95;;;2.33;;
65096;SDS011;51686;46.758;4.356;2023-07-29T10:00:29;5.63;;;2.22;;
65096;SDS011;51686;46.758;4.356;2023-07-29T10:03:17;8.52;;;2.35;;
65096;SDS011;51686;46.758;4.356;2023-07-29T10:06:06;4.95;;;1.88;;
65096;SDS011;51686;46.758;4.356;2023-07-29T10:08:53;5.45;;;2.00;;
65096;SDS011;51686;46.758;4.356;2023-07-29T10:11:41;4.72;;;1.95;;
65096;SDS011;51686;46.758;4.356;2023-07-29T10:14:28;5.22;;;2.10;;
65096;SDS011;51686;46.758;4.356;2023-07-29T10:17:16;5.63;;;2.00;;
65096;SDS011;51686;46.758;4.356;2023-07-29T10:20:03;5.28;;;1.83;;
65096;SDS011;51686;46.758;4.356;2023-07-29T10:22:51;4.57;;;1.88;;
65096;SDS011;51686;46.758;4.356;2023-07-29T10:25:43;4.28;;;1.75;;
65096;SDS011;51686;46.758;4.356;2023-07-29T10:28:34;4.75;;;1.90;;
65096;SDS011;51686;46.758;4.356;2023-07-29T10:31:26;4.13;;;1.75;;
65096;SDS011;51686;46.758;4.356;2023-07-29T10:34:14;3.57;;;1.73;;
65096;SDS011;51686;46.758;4.356;2023-07-29T10:37:01;3.33;;;1.67;;
65096;SDS011;51686;46.758;4.356;2023-07-29T10:39:52;3.00;;;1.63;;
65096;SDS011;51686;46.758;4.356;2023-07-29T10:42:58;3.85;;;1.70;;
65096;SDS011;51686;46.758;4.356;2023-07-29T10:45:48;4.38;;;1.75;;
65096;SDS011;51686;46.758;4.356;2023-07-29T10:51:37;4.93;;;1.70;;
65096;SDS011;51686;46.758;4.356;2023-07-29T10:54:24;4.13;;;1.83;;
65096;SDS011;51686;46.758;4.356;2023-07-29T10:57:15;4.53;;;1.70;;
65096;SDS011;51686;46.758;4.356;2023-07-29T11:00:02;4.10;;;1.73;;
65096;SDS011;51686;46.758;4.356;2023-07-29T11:03:01;5.22;;;1.80;;
65096;SDS011;51686;46.758;4.356;2023-07-29T11:05:51;3.40;;;1.70;;
65096;SDS011;51686;46.758;4.356;2023-07-29T11:11:25;3.67;;;1.80;;
65096;SDS011;51686;46.758;4.356;2023-07-29T11:14:12;3.92;;;1.70;;
65096;SDS011;51686;46.758;4.356;2023-07-29T11:16:59;4.85;;;2.10;;
65096;SDS011;51686;46.758;4.356;2023-07-29T11:19:46;4.25;;;1.85;;
65096;SDS011;51686;46.758;4.356;2023-07-29T11:22:34;3.72;;;1.70;;
65096;SDS011;51686;46.758;4.356;2023-07-29T11:25:22;4.82;;;1.92;;
65096;SDS011;51686;46.758;4.356;2023-07-29T11:28:09;5.35;;;2.00;;
65096;SDS011;51686;46.758;4.356;2023-07-29T11:30:56;4.50;;;1.90;;
65096;SDS011;51686;46.758;4.356;2023-07-29T11:33:43;5.53;;;2.20;;
65096;SDS011;51686;46.758;4.356;2023-07-29T11:36:30;5.70;;;2.10;;
65096;SDS011;51686;46.758;4.356;2023-07-29T11:39:17;4.82;;;1.85;;
65096;SDS011;51686;46.758;4.356;2023-07-29T11:42:04;4.45;;;2.00;;
65096;SDS011;51686;46.758;4.356;2023-07-29T11:44:51;3.83;;;1.92;;
65096;SDS011;51686;46.758;4.356;2023-07-29T11:47:38;6.57;;;2.08;;
65096;SDS011;51686;46.758;4.356;2023-07-29T11:50:25;4.25;;;1.77;;
65096;SDS011;51686;46.758;4.356;2023-07-29T11:53:12;5.05;;;2.15;;
65096;SDS011;51686;46.758;4.356;2023-07-29T11:56:02;4.90;;;2.00;;
65096;SDS011;51686;46.758;4.356;2023-07-29T11:58:50;2.72;;;1.52;;
65096;SDS011;51686;46.758;4.356;2023-07-29T12:01:37;4.82;;;1.73;;
65096;SDS011;51686;46.758;4.356;2023-07-29T12:04:25;5.10;;;1.65;;
65096;SDS011;51686;46.758;4.356;2023-07-29T12:07:13;3.70;;;1.60;;
65096;SDS011;51686;46.758;4.356;2023-07-29T12:12:50;4.35;;;1.90;;
65096;SDS011;51686;46.758;4.356;2023-07-29T12:15:38;5.05;;;1.90;;
65096;SDS011;51686;46.758;4.356;2023-07-29T12:18:29;6.03;;;2.20;;
65096;SDS011;51686;46.758;4.356;2023-07-29T12:21:20;3.95;;;1.80;;
65096;SDS011;51686;46.758;4.356;2023-07-29T12:24:08;3.85;;;1.77;;
65096;SDS011;51686;46.758;4.356;2023-07-29T12:26:55;4.38;;;1.77;;
65096;SDS011;51686;46.758;4.356;2023-07-29T12:29:43;3.47;;;1.63;;
65096;SDS011;51686;46.758;4.356;2023-07-29T12:32:31;3.67;;;1.80;;
65096;SDS011;51686;46.758;4.356;2023-07-29T12:35:21;4.07;;;2.00;;
65096;SDS011;51686;46.758;4.356;2023-07-29T12:38:07;3.90;;;1.73;;
65096;SDS011;51686;46.758;4.356;2023-07-29T12:40:57;3.97;;;1.90;;
65096;SDS011;51686;46.758;4.356;2023-07-29T12:43:44;4.95;;;2.00;;
65096;SDS011;51686;46.758;4.356;2023-07-29T12:46:31;4.93;;;1.63;;
65096;SDS011;51686;46.758;4.356;2023-07-29T12:49:18;5.75;;;1.90;;
65096;SDS011;51686;46.758;4.356;2023-07-29T12:52:06;4.03;;;1.80;;
65096;SDS011;51686;46.758;4.356;2023-07-29T12:54:53;3.80;;;1.80;;
65096;SDS011;51686;46.758;4.356;2023-07-29T12:57:43;3.78;;;1.77;;
65096;SDS011;51686;46.758;4.356;2023-07-29T13:00:30;3.35;;;1.45;;
65096;SDS011;51686;46.758;4.356;2023-07-29T13:03:17;4.43;;;1.70;;
65096;SDS011;51686;46.758;4.356;2023-07-29T13:06:04;4.25;;;1.90;;
65096;SDS011;51686;46.758;4.356;2023-07-29T13:08:51;5.45;;;2.00;;
65096;SDS011;51686;46.758;4.356;2023-07-29T13:11:38;4.15;;;1.80;;
65096;SDS011;51686;46.758;4.356;2023-07-29T13:14:25;4.35;;;1.77;;
65096;SDS011;51686;46.758;4.356;2023-07-29T13:17:12;3.00;;;1.63;;
65096;SDS011;51686;46.758;4.356;2023-07-29T13:19:59;4.45;;;1.90;;
65096;SDS011;51686;46.758;4.356;2023-07-29T13:22:46;4.38;;;1.80;;
65096;SDS011;51686;46.758;4.356;2023-07-29T13:25:33;3.30;;;1.70;;
65096;SDS011;51686;46.758;4.356;2023-07-29T13:28:20;4.22;;;1.80;;
65096;SDS011;51686;46.758;4.356;2023-07-29T13:31:07;4.75;;;2.00;;
65096;SDS011;51686;46.758;4.356;2023-07-29T13:33:54;5.43;;;2.03;;
65096;SDS011;51686;46.758;4.356;2023-07-29T13:36:41;4.10;;;1.83;;
65096;SDS011;51686;46.758;4.356;2023-07-29T13:39:28;4.13;;;1.98;;
65096;SDS011;51686;46.758;4.356;2023-07-29T13:42:15;4.85;;;1.80;;
65096;SDS011;51686;46.758;4.356;2023-07-29T13:45:02;6.75;;;2.00;;
65096;SDS011;51686;46.758;4.356;2023-07-29T13:47:49;5.05;;;2.13;;
65096;SDS011;51686;46.758;4.356;2023-07-29T13:50:36;4.90;;;2.03;;
65096;SDS011;51686;46.758;4.356;2023-07-29T13:53:23;4.80;;;2.08;;
65096;SDS011;51686;46.758;4.356;2023-07-29T13:56:10;5.03;;;2.03;;
65096;SDS011;51686;46.758;4.356;2023-07-29T13:58:57;4.93;;;1.90;;
65096;SDS011;51686;46.758;4.356;2023-07-29T14:01:44;5.13;;;1.90;;
65096;SDS011;51686;46.758;4.356;2023-07-29T14:04:31;3.70;;;1.83;;
65096;SDS011;51686;46.758;4.356;2023-07-29T14:07:19;4.45;;;1.90;;
65096;SDS011;51686;46.758;4.356;2023-07-29T14:10:06;3.92;;;1.83;;
65096;SDS011;51686;46.758;4.356;2023-07-29T14:12:53;5.22;;;2.08;;
65096;SDS011;51686;46.758;4.356;2023-07-29T14:15:40;3.92;;;1.80;;
65096;SDS011;51686;46.758;4.356;2023-07-29T14:18:27;6.70;;;1.90;;
65096;SDS011;51686;46.758;4.356;2023-07-29T14:21:13;4.78;;;1.70;;
65096;SDS011;51686;46.758;4.356;2023-07-29T14:24:03;3.65;;;1.70;;
65096;SDS011;51686;46.758;4.356;2023-07-29T14:26:49;4.47;;;1.73;;
65096;SDS011;51686;46.758;4.356;2023-07-29T14:29:36;3.17;;;1.63;;
65096;SDS011;51686;46.758;4.356;2023-07-29T14:32:23;4.32;;;1.75;;
65096;SDS011;51686;46.758;4.356;2023-07-29T14:35:11;3.33;;;1.60;;
65096;SDS011;51686;46.758;4.356;2023-07-29T14:37:58;4.68;;;1.80;;
65096;SDS011;51686;46.758;4.356;2023-07-29T14:40:47;4.68;;;1.50;;
65096;SDS011;51686;46.758;4.356;2023-07-29T14:43:34;3.25;;;1.63;;
65096;SDS011;51686;46.758;4.356;2023-07-29T14:46:21;4.90;;;1.63;;
65096;SDS011;51686;46.758;4.356;2023-07-29T14:49:08;3.17;;;1.40;;
65096;SDS011;51686;46.758;4.356;2023-07-29T14:51:56;3.13;;;1.60;;
65096;SDS011;51686;46.758;4.356;2023-07-29T14:54:42;3.60;;;1.45;;
65096;SDS011;51686;46.758;4.356;2023-07-29T14:57:29;4.03;;;1.55;;
65096;SDS011;51686;46.758;4.356;2023-07-29T15:00:16;3.75;;;1.70;;
65096;SDS011;51686;46.758;4.356;2023-07-29T15:03:04;3.08;;;1.42;;
65096;SDS011;51686;46.758;4.356;2023-07-29T15:05:51;4.10;;;1.60;;
65096;SDS011;51686;46.758;4.356;2023-07-29T15:08:38;5.28;;;2.00;;
65096;SDS011;51686;46.758;4.356;2023-07-29T15:11:25;3.65;;;1.60;;
65096;SDS011;51686;46.758;4.356;2023-07-29T15:14:11;2.83;;;1.48;;
65096;SDS011;51686;46.758;4.356;2023-07-29T15:16:59;2.67;;;1.20;;
65096;SDS011;51686;46.758;4.356;2023-07-29T15:19:46;3.00;;;1.40;;
65096;SDS011;51686;46.758;4.356;2023-07-29T15:22:36;2.75;;;1.30;;
65096;SDS011;51686;46.758;4.356;2023-07-29T15:25:23;2.95;;;1.40;;
65096;SDS011;51686;46.758;4.356;2023-07-29T15:28:10;2.80;;;1.40;;
65096;SDS011;51686;46.758;4.356;2023-07-29T15:30:57;3.20;;;1.50;;
65096;SDS011;51686;46.758;4.356;2023-07-29T15:33:44;3.42;;;1.40;;
65096;SDS011;51686;46.758;4.356;2023-07-29T15:36:31;2.88;;;1.50;;
65096;SDS011;51686;46.758;4.356;2023-07-29T15:39:18;3.05;;;1.40;;
65096;SDS011;51686;46.758;4.356;2023-07-29T15:42:05;2.40;;;1.20;;
65096;SDS011;51686;46.758;4.356;2023-07-29T15:44:52;2.15;;;1.10;;
65096;SDS011;51686;46.758;4.356;2023-07-29T15:47:39;2.63;;;1.20;;
65096;SDS011;51686;46.758;4.356;2023-07-29T15:50:26;3.83;;;1.40;;
65096;SDS011;51686;46.758;4.356;2023-07-29T15:53:13;2.80;;;1.50;;
65096;SDS011;51686;46.758;4.356;2023-07-29T15:56:00;3.75;;;1.50;;
65096;SDS011;51686;46.758;4.356;2023-07-29T15:58:47;4.80;;;1.40;;
65096;SDS011;51686;46.758;4.356;2023-07-29T16:01:34;3.78;;;1.60;;
65096;SDS011;51686;46.758;4.356;2023-07-29T16:04:21;3.65;;;1.65;;
65096;SDS011;51686;46.758;4.356;2023-07-29T16:07:08;2.95;;;1.50;;
65096;SDS011;51686;46.758;4.356;2023-07-29T16:09:54;5.38;;;1.75;;
65096;SDS011;51686;46.758;4.356;2023-07-29T16:12:41;5.43;;;1.70;;
65096;SDS011;51686;46.758;4.356;2023-07-29T16:15:32;3.47;;;1.50;;
65096;SDS011;51686;46.758;4.356;2023-07-29T16:18:19;3.90;;;1.60;;
65096;SDS011;51686;46.758;4.356;2023-07-29T16:21:06;5.07;;;1.70;;
65096;SDS011;51686;46.758;4.356;2023-07-29T16:23:53;3.72;;;1.60;;
65096;SDS011;51686;46.758;4.356;2023-07-29T16:26:40;3.80;;;1.65;;
65096;SDS011;51686;46.758;4.356;2023-07-29T16:29:27;3.20;;;1.60;;
65096;SDS011;51686;46.758;4.356;2023-07-29T16:32:14;4.78;;;1.90;;
65096;SDS011;51686;46.758;4.356;2023-07-29T16:35:02;3.95;;;1.65;;
65096;SDS011;51686;46.758;4.356;2023-07-29T16:37:49;4.55;;;1.80;;
65096;SDS011;51686;46.758;4.356;2023-07-29T16:40:36;3.75;;;1.58;;
65096;SDS011;51686;46.758;4.356;2023-07-29T16:43:23;3.58;;;1.50;;
65096;SDS011;51686;46.758;4.356;2023-07-29T16:46:10;3.22;;;1.42;;
65096;SDS011;51686;46.758;4.356;2023-07-29T16:48:57;5.72;;;2.13;;
65096;SDS011;51686;46.758;4.356;2023-07-29T16:51:44;6.93;;;2.80;;
65096;SDS011;51686;46.758;4.356;2023-07-29T16:54:31;5.17;;;2.17;;
65096;SDS011;51686;46.758;4.356;2023-07-29T16:57:18;5.28;;;2.10;;
65096;SDS011;51686;46.758;4.356;2023-07-29T17:00:05;4.80;;;1.80;;
65096;SDS011;51686;46.758;4.356;2023-07-29T17:02:53;4.03;;;1.70;;